sensor_id;sensor_type;location;lat;lon;timestamp;pressure;altitude;pressure_sealevel;temperature;humidity
16016;BME280;8112;53.592;10.184;2023-04-28T00:03:06;101522.69;;;6.01;100.00
16016;BME280;8112;53.592;10.184;2023-04-28T00:08:09;101529.44;;;6.10;100.00
16016;BME280;8112;53.592;10.184;2023-04-28T00:13:11;101528.78;;;6.02;100.00
16016;BME280;8112;53.592;10.184;2023-04-28T00:18:13;101520.94;;;6.00;100.00
16016;BME280;8112;53.592;10.184;2023-04-28T00:23:16;101518.97;;;6.10;100.00
16016;BME280;8112;53.592;10.184;2023-04-28T00:28:17;101512.91;;;6.08;100.00
16016;BME280;8112;53.592;10.184;2023-04-28T00:33:19;101510.47;;;6.00;100.00
16016;BME280;8112;53.592;10.184;2023-04-28T00:38:23;101500.00;;;6.00;100.00
16016;BME280;8112;53.592;10.184;2023-04-28T00:43:24;101505.31;;;5.98;100.00
16016;BME280;8112;53.592;10.184;2023-04-28T00:48:26;101495.66;;;6.01;100.00
16016;BME280;8112;53.592;10.184;2023-04-28T00:53:30;101492.44;;;5.91;100.00
16016;BME280;8112;53.592;10.184;2023-04-28T00:58:33;101481.34;;;5.81;100.00
16016;BME280;8112;53.592;10.184;2023-04-28T01:03:37;101486.09;;;5.66;100.00
16016;BME280;8112;53.592;10.184;2023-04-28T01:08:41;101482.25;;;5.45;100.00
16016;BME280;8112;53.592;10.184;2023-04-28T01:13:49;101495.59;;;5.34;100.00
16016;BME280;8112;53.592;10.184;2023-04-28T01:18:52;101493.09;;;5.30;100.00
16016;BME280;8112;53.592;10.184;2023-04-28T01:23:55;101480.47;;;5.11;100.00
16016;BME280;8112;53.592;10.184;2023-04-28T01:28:57;101474.59;;;5.03;100.00
16016;BME280;8112;53.592;10.184;2023-04-28T01:33:59;101469.53;;;4.96;100.00
16016;BME280;8112;53.592;10.184;2023-04-28T01:39:02;101474.31;;;4.77;100.00
16016;BME280;8112;53.592;10.184;2023-04-28T01:44:04;101475.84;;;4.86;100.00
16016;BME280;8112;53.592;10.184;2023-04-28T01:49:07;101466.22;;;4.88;100.00
16016;BME280;8112;53.592;10.184;2023-04-28T01:54:10;101467.84;;;4.94;100.00
16016;BME280;8112;53.592;10.184;2023-04-28T01:59:11;101455.78;;;4.88;100.00
16016;BME280;8112;53.592;10.184;2023-04-28T02:04:13;101459.28;;;4.87;100.00
16016;BME280;8112;53.592;10.184;2023-04-28T02:09:16;101447.31;;;4.78;100.00
16016;BME280;8112;53.592;10.184;2023-04-28T02:14:18;101442.22;;;4.72;100.00
16016;BME280;8112;53.592;10.184;2023-04-28T02:19:19;101431.88;;;4.69;100.00
16016;BME280;8112;53.592;10.184;2023-04-28T02:24:22;101439.81;;;4.63;100.00
16016;BME280;8112;53.592;10.184;2023-04-28T02:29:25;101440.88;;;4.54;100.00
16016;BME280;8112;53.592;10.184;2023-04-28T02:34:27;101438.44;;;4.46;100.00
16016;BME280;8112;53.592;10.184;2023-04-28T02:39:30;101428.72;;;4.53;100.00
16016;BME280;8112;53.592;10.184;2023-04-28T02:44:32;101422.66;;;4.52;100.00
16016;BME280;8112;53.592;10.184;2023-04-28T02:49:34;101415.00;;;4.45;100.00
16016;BME280;8112;53.592;10.184;2023-04-28T02:54:37;101414.94;;;4.48;100.00
16016;BME280;8112;53.592;10.184;2023-04-28T02:59:39;101407.16;;;4.45;100.00
16016;BME280;8112;53.592;10.184;2023-04-28T03:04:41;101406.34;;;4.42;100.00
16016;BME280;8112;53.592;10.184;2023-04-28T03:09:44;101399.34;;;4.45;100.00
16016;BME280;8112;53.592;10.184;2023-04-28T03:14:46;101384.59;;;4.42;100.00
16016;BME280;8112;53.592;10.184;2023-04-28T03:19:49;101368.09;;;4.41;100.00
16016;BME280;8112;53.592;10.184;2023-04-28T03:24:52;101359.44;;;4.39;100.00
16016;BME280;8112;53.592;10.184;2023-04-28T03:29:54;101359.44;;;4.39;100.00
16016;BME280;8112;53.592;10.184;2023-04-28T03:34:56;101357.59;;;4.43;100.00
16016;BME280;8112;53.592;10.184;2023-04-28T03:39:59;101362.09;;;4.36;100.00
16016;BME280;8112;53.592;10.184;2023-04-28T03:45:04;101360.28;;;4.41;100.00
16016;BME280;8112;53.592;10.184;2023-04-28T03:50:07;101353.34;;;4.40;100.00
16016;BME280;8112;53.592;10.184;2023-04-28T03:55:10;101342.94;;;4.37;100.00
16016;BME280;8112;53.592;10.184;2023-04-28T04:00:13;101334.22;;;4.38;100.00
16016;BME280;8112;53.592;10.184;2023-04-28T04:05:20;101330.59;;;4.44;100.00
16016;BME280;8112;53.592;10.184;2023-04-28T04:10:23;101330.69;;;4.41;100.00
16016;BME280;8112;53.592;10.184;2023-04-28T04:15:25;101320.09;;;4.47;100.00
16016;BME280;8112;53.592;10.184;2023-04-28T04:20:27;101325.91;;;4.60;100.00
16016;BME280;8112;53.592;10.184;2023-04-28T04:25:30;101327.41;;;4.69;100.00
16016;BME280;8112;53.592;10.184;2023-04-28T04:30:33;101319.03;;;4.91;100.00
16016;BME280;8112;53.592;10.184;2023-04-28T04:35:34;101325.06;;;4.94;100.00
16016;BME280;8112;53.592;10.184;2023-04-28T04:40:37;101311.34;;;5.18;100.00
16016;BME280;8112;53.592;10.184;2023-04-28T04:45:40;101295.38;;;5.28;100.00
16016;BME280;8112;53.592;10.184;2023-04-28T04:50:43;101297.03;;;5.33;100.00
16016;BME280;8112;53.592;10.184;2023-04-28T04:55:46;101285.94;;;5.54;100.00
16016;BME280;8112;53.592;10.184;2023-04-28T05:00:49;101283.06;;;5.64;100.00
16016;BME280;8112;53.592;10.184;2023-04-28T05:05:50;101277.50;;;5.75;100.00
16016;BME280;8112;53.592;10.184;2023-04-28T05:11:13;101282.50;;;5.82;100.00
16016;BME280;8112;53.592;10.184;2023-04-28T05:16:15;101271.88;;;5.89;100.00
16016;BME280;8112;53.592;10.184;2023-04-28T05:21:37;101266.31;;;5.99;100.00
16016;BME280;8112;53.592;10.184;2023-04-28T05:26:40;101261.66;;;6.36;100.00
16016;BME280;8112;53.592;10.184;2023-04-28T05:31:44;101266.53;;;6.99;100.00
16016;BME280;8112;53.592;10.184;2023-04-28T05:36:45;101263.31;;;7.87;100.00
16016;BME280;8112;53.592;10.184;2023-04-28T05:41:49;101260.34;;;9.03;100.00
16016;BME280;8112;53.592;10.184;2023-04-28T05:46:50;101258.25;;;9.30;100.00
16016;BME280;8112;53.592;10.184;2023-04-28T05:51:57;101255.91;;;8.63;100.00
16016;BME280;8112;53.592;10.184;2023-04-28T05:57:00;101249.53;;;8.26;100.00
16016;BME280;8112;53.592;10.184;2023-04-28T06:02:03;101242.16;;;7.91;100.00
16016;BME280;8112;53.592;10.184;2023-04-28T06:07:05;101229.69;;;8.39;100.00
16016;BME280;8112;53.592;10.184;2023-04-28T06:12:09;101231.06;;;8.50;100.00
16016;BME280;8112;53.592;10.184;2023-04-28T06:17:12;101219.69;;;8.91;100.00
16016;BME280;8112;53.592;10.184;2023-04-28T06:22:14;101210.09;;;8.90;100.00
16016;BME280;8112;53.592;10.184;2023-04-28T06:27:17;101219.88;;;9.26;100.00
16016;BME280;8112;53.592;10.184;2023-04-28T06:32:18;101216.47;;;9.43;100.00
16016;BME280;8112;53.592;10.184;2023-04-28T06:37:20;101214.75;;;9.42;100.00
16016;BME280;8112;53.592;10.184;2023-04-28T06:42:23;101216.66;;;9.58;100.00
16016;BME280;8112;53.592;10.184;2023-04-28T06:47:31;101222.50;;;10.01;100.00
16016;BME280;8112;53.592;10.184;2023-04-28T06:52:33;101207.97;;;10.29;100.00
16016;BME280;8112;53.592;10.184;2023-04-28T06:57:36;101213.88;;;10.69;100.00
16016;BME280;8112;53.592;10.184;2023-04-28T07:02:38;101199.13;;;10.83;100.00
16016;BME280;8112;53.592;10.184;2023-04-28T07:07:39;101198.09;;;10.86;100.00
16016;BME280;8112;53.592;10.184;2023-04-28T07:12:43;101199.03;;;11.18;100.00
16016;BME280;8112;53.592;10.184;2023-04-28T07:17:44;101185.75;;;11.52;100.00
16016;BME280;8112;53.592;10.184;2023-04-28T07:22:46;101185.66;;;11.37;100.00
16016;BME280;8112;53.592;10.184;2023-04-28T07:27:49;101171.09;;;11.62;100.00
16016;BME280;8112;53.592;10.184;2023-04-28T07:32:51;101180.13;;;11.42;100.00
16016;BME280;8112;53.592;10.184;2023-04-28T07:37:52;101177.56;;;11.57;100.00
16016;BME280;8112;53.592;10.184;2023-04-28T07:42:55;101166.28;;;12.01;100.00
16016;BME280;8112;53.592;10.184;2023-04-28T07:47:57;101169.78;;;12.47;100.00
16016;BME280;8112;53.592;10.184;2023-04-28T07:52:59;101165.91;;;12.52;100.00
16016;BME280;8112;53.592;10.184;2023-04-28T07:58:02;101156.69;;;12.74;100.00
16016;BME280;8112;53.592;10.184;2023-04-28T08:03:04;101159.22;;;12.90;100.00
16016;BME280;8112;53.592;10.184;2023-04-28T08:08:05;101144.78;;;12.81;100.00
16016;BME280;8112;53.592;10.184;2023-04-28T08:13:08;101150.19;;;13.36;98.98
16016;BME280;8112;53.592;10.184;2023-04-28T08:18:10;101143.13;;;13.64;95.20
16016;BME280;8112;53.592;10.184;2023-04-28T08:23:12;101151.44;;;13.86;92.90
16016;BME280;8112;53.592;10.184;2023-04-28T08:28:15;101139.13;;;13.30;92.32
16016;BME280;8112;53.592;10.184;2023-04-28T08:33:16;101142.94;;;13.67;90.78
16016;BME280;8112;53.592;10.184;2023-04-28T08:38:19;101130.97;;;13.75;92.04
16016;BME280;8112;53.592;10.184;2023-04-28T08:43:25;101131.13;;;13.86;94.06
16016;BME280;8112;53.592;10.184;2023-04-28T08:48:29;101132.75;;;14.15;89.83
16016;BME280;8112;53.592;10.184;2023-04-28T08:53:36;101130.84;;;14.04;86.38
16016;BME280;8112;53.592;10.184;2023-04-28T08:58:40;101116.69;;;13.90;88.58
16016;BME280;8112;53.592;10.184;2023-04-28T09:03:41;101118.03;;;14.36;87.93
16016;BME280;8112;53.592;10.184;2023-04-28T09:08:43;101113.16;;;14.30;84.54
16016;BME280;8112;53.592;10.184;2023-04-28T09:13:47;101103.72;;;14.39;81.51
16016;BME280;8112;53.592;10.184;2023-04-28T09:18:55;101095.53;;;14.42;82.64
16016;BME280;8112;53.592;10.184;2023-04-28T09:23:57;101098.09;;;14.18;87.54
16016;BME280;8112;53.592;10.184;2023-04-28T09:29:11;101090.53;;;14.76;86.88
16016;BME280;8112;53.592;10.184;2023-04-28T09:34:14;101077.84;;;14.17;87.97
16016;BME280;8112;53.592;10.184;2023-04-28T09:39:27;101087.28;;;14.47;91.23
16016;BME280;8112;53.592;10.184;2023-04-28T09:44:31;101080.59;;;14.28;91.16
16016;BME280;8112;53.592;10.184;2023-04-28T09:49:52;101071.53;;;14.70;90.06
16016;BME280;8112;53.592;10.184;2023-04-28T09:54:55;101069.50;;;14.86;89.14
16016;BME280;8112;53.592;10.184;2023-04-28T09:59:59;101066.47;;;15.04;86.49
16016;BME280;8112;53.592;10.184;2023-04-28T10:05:01;101055.88;;;15.64;82.55
16016;BME280;8112;53.592;10.184;2023-04-28T10:10:04;101052.31;;;15.76;82.05
16016;BME280;8112;53.592;10.184;2023-04-28T10:15:09;101044.16;;;16.02;80.42
16016;BME280;8112;53.592;10.184;2023-04-28T10:20:14;101032.44;;;15.93;80.23
16016;BME280;8112;53.592;10.184;2023-04-28T10:25:24;101021.34;;;16.22;78.92
16016;BME280;8112;53.592;10.184;2023-04-28T10:30:28;101021.53;;;15.85;77.04
16016;BME280;8112;53.592;10.184;2023-04-28T10:35:40;101011.25;;;15.45;78.71
16016;BME280;8112;53.592;10.184;2023-04-28T10:40:43;101004.63;;;15.50;79.56
16016;BME280;8112;53.592;10.184;2023-04-28T10:46:03;101005.53;;;15.74;78.28
16016;BME280;8112;53.592;10.184;2023-04-28T10:51:35;100982.00;;;15.80;78.08
16016;BME280;8112;53.592;10.184;2023-04-28T10:56:37;100989.69;;;16.08;79.35
16016;BME280;8112;53.592;10.184;2023-04-28T11:01:40;100989.78;;;16.41;77.98
16016;BME280;8112;53.592;10.184;2023-04-28T11:06:43;100976.41;;;16.19;77.65
16016;BME280;8112;53.592;10.184;2023-04-28T11:12:03;100987.47;;;16.36;78.53
16016;BME280;8112;53.592;10.184;2023-04-28T11:17:08;100975.03;;;16.36;77.72
16016;BME280;8112;53.592;10.184;2023-04-28T11:22:14;100965.31;;;16.70;74.84
16016;BME280;8112;53.592;10.184;2023-04-28T11:27:22;100971.09;;;17.19;73.90
16016;BME280;8112;53.592;10.184;2023-04-28T11:32:29;100966.19;;;17.03;72.64
16016;BME280;8112;53.592;10.184;2023-04-28T11:37:31;100964.84;;;17.30;70.25
16016;BME280;8112;53.592;10.184;2023-04-28T11:42:33;100954.41;;;16.73;71.24
16016;BME280;8112;53.592;10.184;2023-04-28T11:47:36;100953.88;;;16.90;72.05
16016;BME280;8112;53.592;10.184;2023-04-28T11:52:47;100953.59;;;16.93;71.20
16016;BME280;8112;53.592;10.184;2023-04-28T11:57:59;100950.22;;;16.91;71.25
16016;BME280;8112;53.592;10.184;2023-04-28T12:03:12;100945.75;;;17.24;70.99
16016;BME280;8112;53.592;10.184;2023-04-28T12:08:26;100939.44;;;16.60;74.20
16016;BME280;8112;53.592;10.184;2023-04-28T12:13:28;100932.97;;;15.85;73.62
16016;BME280;8112;53.592;10.184;2023-04-28T12:18:31;100926.09;;;16.28;75.45
16016;BME280;8112;53.592;10.184;2023-04-28T12:23:34;100930.09;;;16.22;75.10
16016;BME280;8112;53.592;10.184;2023-04-28T12:28:37;100918.75;;;15.97;77.24
16016;BME280;8112;53.592;10.184;2023-04-28T12:33:40;100920.06;;;16.14;78.13
16016;BME280;8112;53.592;10.184;2023-04-28T12:38:46;100910.31;;;15.92;78.53
16016;BME280;8112;53.592;10.184;2023-04-28T12:43:49;100904.75;;;15.95;79.45
16016;BME280;8112;53.592;10.184;2023-04-28T12:48:52;100894.09;;;15.61;80.64
16016;BME280;8112;53.592;10.184;2023-04-28T12:53:53;100885.63;;;15.44;83.09
16016;BME280;8112;53.592;10.184;2023-04-28T12:58:55;100888.78;;;15.61;84.75
16016;BME280;8112;53.592;10.184;2023-04-28T13:03:58;100872.75;;;15.15;86.13
16016;BME280;8112;53.592;10.184;2023-04-28T13:09:00;100875.34;;;14.92;87.70
16016;BME280;8112;53.592;10.184;2023-04-28T13:14:03;100866.56;;;15.03;90.31
16016;BME280;8112;53.592;10.184;2023-04-28T13:19:06;100867.97;;;15.20;91.26
16016;BME280;8112;53.592;10.184;2023-04-28T13:24:10;100866.47;;;15.16;93.92
16016;BME280;8112;53.592;10.184;2023-04-28T13:29:11;100865.31;;;14.85;94.81
16016;BME280;8112;53.592;10.184;2023-04-28T13:34:15;100850.84;;;14.77;95.14
16016;BME280;8112;53.592;10.184;2023-04-28T13:39:18;100849.81;;;15.03;94.79
16016;BME280;8112;53.592;10.184;2023-04-28T13:44:21;100845.91;;;14.84;96.45
16016;BME280;8112;53.592;10.184;2023-04-28T13:49:24;100836.28;;;14.94;96.54
16016;BME280;8112;53.592;10.184;2023-04-28T13:54:25;100836.31;;;15.17;98.85
16016;BME280;8112;53.592;10.184;2023-04-28T13:59:27;100828.63;;;15.48;99.61
16016;BME280;8112;53.592;10.184;2023-04-28T14:04:30;100831.84;;;16.20;99.02
16016;BME280;8112;53.592;10.184;2023-04-28T14:09:32;100822.28;;;16.29;95.31
16016;BME280;8112;53.592;10.184;2023-04-28T14:14:34;100821.75;;;16.68;94.75
16016;BME280;8112;53.592;10.184;2023-04-28T14:19:37;100817.88;;;16.39;94.32
16016;BME280;8112;53.592;10.184;2023-04-28T14:24:38;100818.31;;;16.45;93.75
16016;BME280;8112;53.592;10.184;2023-04-28T14:29:41;100813.91;;;16.34;91.80
16016;BME280;8112;53.592;10.184;2023-04-28T14:34:45;100810.59;;;16.42;93.70
16016;BME280;8112;53.592;10.184;2023-04-28T14:39:47;100802.75;;;16.07;93.02
16016;BME280;8112;53.592;10.184;2023-04-28T14:44:49;100794.56;;;15.99;94.07
16016;BME280;8112;53.592;10.184;2023-04-28T14:49:52;100802.28;;;15.79;96.87
16016;BME280;8112;53.592;10.184;2023-04-28T14:54:55;100801.47;;;15.22;99.80
16016;BME280;8112;53.592;10.184;2023-04-28T14:59:57;100793.75;;;15.30;100.00
16016;BME280;8112;53.592;10.184;2023-04-28T15:05:00;100794.59;;;15.53;100.00
16016;BME280;8112;53.592;10.184;2023-04-28T15:10:02;100768.91;;;15.31;100.00
16016;BME280;8112;53.592;10.184;2023-04-28T15:15:05;100781.06;;;15.11;100.00
16016;BME280;8112;53.592;10.184;2023-04-28T15:20:08;100769.81;;;14.73;100.00
16016;BME280;8112;53.592;10.184;2023-04-28T15:25:10;100770.31;;;14.54;100.00
16016;BME280;8112;53.592;10.184;2023-04-28T15:30:12;100758.78;;;14.31;100.00
16016;BME280;8112;53.592;10.184;2023-04-28T15:35:15;100768.53;;;14.30;100.00
16016;BME280;8112;53.592;10.184;2023-04-28T15:40:18;100758.63;;;14.21;100.00
16016;BME280;8112;53.592;10.184;2023-04-28T15:45:21;100760.59;;;14.30;100.00
16016;BME280;8112;53.592;10.184;2023-04-28T15:50:24;100755.22;;;14.19;100.00
16016;BME280;8112;53.592;10.184;2023-04-28T15:55:26;100753.78;;;14.15;100.00
16016;BME280;8112;53.592;10.184;2023-04-28T16:00:28;100744.69;;;14.06;100.00
16016;BME280;8112;53.592;10.184;2023-04-28T16:05:31;100742.84;;;13.95;100.00
16016;BME280;8112;53.592;10.184;2023-04-28T16:10:32;100732.03;;;13.98;100.00
16016;BME280;8112;53.592;10.184;2023-04-28T16:15:34;100720.38;;;13.88;100.00
16016;BME280;8112;53.592;10.184;2023-04-28T16:20:37;100719.16;;;13.80;100.00
16016;BME280;8112;53.592;10.184;2023-04-28T16:25:39;100723.78;;;13.65;100.00
16016;BME280;8112;53.592;10.184;2023-04-28T16:30:42;100716.06;;;13.49;100.00
16016;BME280;8112;53.592;10.184;2023-04-28T16:35:52;100710.13;;;13.59;100.00
16016;BME280;8112;53.592;10.184;2023-04-28T16:40:54;100720.00;;;13.57;100.00
16016;BME280;8112;53.592;10.184;2023-04-28T16:45:55;100708.22;;;13.61;100.00
16016;BME280;8112;53.592;10.184;2023-04-28T16:50:59;100709.50;;;13.42;100.00
16016;BME280;8112;53.592;10.184;2023-04-28T16:56:00;100690.47;;;13.37;100.00
16016;BME280;8112;53.592;10.184;2023-04-28T17:01:02;100699.72;;;13.18;100.00
16016;BME280;8112;53.592;10.184;2023-04-28T17:06:05;100702.28;;;13.07;100.00
16016;BME280;8112;53.592;10.184;2023-04-28T17:11:07;100704.50;;;13.00;100.00
16016;BME280;8112;53.592;10.184;2023-04-28T17:16:09;100711.50;;;12.88;100.00
16016;BME280;8112;53.592;10.184;2023-04-28T17:21:13;100714.22;;;12.74;100.00
16016;BME280;8112;53.592;10.184;2023-04-28T17:26:16;100727.41;;;12.35;100.00
16016;BME280;8112;53.592;10.184;2023-04-28T17:31:18;100729.97;;;12.09;100.00
16016;BME280;8112;53.592;10.184;2023-04-28T17:36:21;100729.19;;;11.79;100.00
16016;BME280;8112;53.592;10.184;2023-04-28T17:41:25;100718.25;;;11.44;100.00
16016;BME280;8112;53.592;10.184;2023-04-28T17:46:26;100713.84;;;11.30;100.00
16016;BME280;8112;53.592;10.184;2023-04-28T17:51:30;100712.13;;;11.29;100.00
16016;BME280;8112;53.592;10.184;2023-04-28T17:56:31;100708.66;;;11.28;100.00
16016;BME280;8112;53.592;10.184;2023-04-28T18:01:33;100718.94;;;11.18;100.00
16016;BME280;8112;53.592;10.184;2023-04-28T18:06:36;100717.63;;;11.11;100.00
16016;BME280;8112;53.592;10.184;2023-04-28T18:11:38;100724.69;;;10.96;100.00
16016;BME280;8112;53.592;10.184;2023-04-28T18:16:40;100734.94;;;10.86;100.00
16016;BME280;8112;53.592;10.184;2023-04-28T18:21:43;100741.16;;;10.85;100.00
16016;BME280;8112;53.592;10.184;2023-04-28T18:26:45;100740.09;;;10.73;100.00
16016;BME280;8112;53.592;10.184;2023-04-28T18:31:46;100736.41;;;10.61;100.00
16016;BME280;8112;53.592;10.184;2023-04-28T18:36:49;100750.34;;;10.63;100.00
16016;BME280;8112;53.592;10.184;2023-04-28T18:41:51;100751.84;;;10.67;100.00
16016;BME280;8112;53.592;10.184;2023-04-28T18:46:52;100767.66;;;10.67;100.00
16016;BME280;8112;53.592;10.184;2023-04-28T18:51:56;100762.78;;;10.61;100.00
16016;BME280;8112;53.592;10.184;2023-04-28T18:57:00;100763.09;;;10.55;100.00
16016;BME280;8112;53.592;10.184;2023-04-28T19:02:03;100746.53;;;10.53;100.00
16016;BME280;8112;53.592;10.184;2023-04-28T19:07:05;100743.09;;;10.52;100.00
16016;BME280;8112;53.592;10.184;2023-04-28T19:12:07;100748.25;;;10.54;100.00
16016;BME280;8112;53.592;10.184;2023-04-28T19:17:09;100742.59;;;10.46;100.00
16016;BME280;8112;53.592;10.184;2023-04-28T19:22:30;100736.88;;;10.37;100.00
16016;BME280;8112;53.592;10.184;2023-04-28T19:27:35;100743.63;;;10.27;100.00
16016;BME280;8112;53.592;10.184;2023-04-28T19:32:37;100748.88;;;10.27;100.00
16016;BME280;8112;53.592;10.184;2023-04-28T19:37:40;100758.94;;;10.20;100.00
16016;BME280;8112;53.592;10.184;2023-04-28T19:42:42;100758.16;;;10.18;100.00
16016;BME280;8112;53.592;10.184;2023-04-28T19:47:44;100768.78;;;10.17;100.00
16016;BME280;8112;53.592;10.184;2023-04-28T19:52:47;100776.09;;;10.11;100.00
16016;BME280;8112;53.592;10.184;2023-04-28T19:57:49;100785.09;;;10.07;100.00
16016;BME280;8112;53.592;10.184;2023-04-28T20:02:52;100789.66;;;9.88;100.00
16016;BME280;8112;53.592;10.184;2023-04-28T20:07:55;100795.28;;;9.81;100.00
16016;BME280;8112;53.592;10.184;2023-04-28T20:12:56;100799.78;;;9.79;100.00
16016;BME280;8112;53.592;10.184;2023-04-28T20:17:58;100798.25;;;9.75;100.00
16016;BME280;8112;53.592;10.184;2023-04-28T20:23:01;100809.91;;;9.71;100.00
16016;BME280;8112;53.592;10.184;2023-04-28T20:28:03;100816.16;;;9.68;100.00
16016;BME280;8112;53.592;10.184;2023-04-28T20:33:05;100812.66;;;9.68;100.00
16016;BME280;8112;53.592;10.184;2023-04-28T20:38:08;100818.19;;;9.63;100.00
16016;BME280;8112;53.592;10.184;2023-04-28T20:43:10;100828.63;;;9.65;100.00
16016;BME280;8112;53.592;10.184;2023-04-28T20:48:11;100829.03;;;9.57;100.00
16016;BME280;8112;53.592;10.184;2023-04-28T20:53:14;100828.00;;;9.44;100.00
16016;BME280;8112;53.592;10.184;2023-04-28T20:58:16;100826.38;;;9.41;100.00
16016;BME280;8112;53.592;10.184;2023-04-28T21:03:18;100825.63;;;9.39;100.00
16016;BME280;8112;53.592;10.184;2023-04-28T21:08:24;100826.97;;;9.46;100.00
16016;BME280;8112;53.592;10.184;2023-04-28T21:13:25;100827.16;;;9.43;100.00
16016;BME280;8112;53.592;10.184;2023-04-28T21:18:27;100829.44;;;9.49;100.00
16016;BME280;8112;53.592;10.184;2023-04-28T21:23:30;100818.66;;;9.38;100.00
16016;BME280;8112;53.592;10.184;2023-04-28T21:28:32;100816.72;;;9.24;100.00
16016;BME280;8112;53.592;10.184;2023-04-28T21:33:34;100819.28;;;9.25;100.00
16016;BME280;8112;53.592;10.184;2023-04-28T21:38:37;100826.84;;;9.32;100.00
16016;BME280;8112;53.592;10.184;2023-04-28T21:43:38;100828.47;;;9.34;100.00
16016;BME280;8112;53.592;10.184;2023-04-28T21:48:40;100821.00;;;9.26;100.00
16016;BME280;8112;53.592;10.184;2023-04-28T21:53:43;100815.72;;;9.26;100.00
16016;BME280;8112;53.592;10.184;2023-04-28T21:58:45;100825.31;;;9.27;100.00
16016;BME280;8112;53.592;10.184;2023-04-28T22:03:46;100819.91;;;9.13;100.00
16016;BME280;8112;53.592;10.184;2023-04-28T22:08:50;100817.22;;;9.15;100.00
16016;BME280;8112;53.592;10.184;2023-04-28T22:13:51;100822.66;;;9.11;100.00
16016;BME280;8112;53.592;10.184;2023-04-28T22:18:53;100812.91;;;8.96;100.00
16016;BME280;8112;53.592;10.184;2023-04-28T22:23:56;100801.84;;;8.89;100.00
16016;BME280;8112;53.592;10.184;2023-04-28T22:29:03;100798.69;;;8.82;100.00
16016;BME280;8112;53.592;10.184;2023-04-28T22:34:05;100805.56;;;8.85;100.00
16016;BME280;8112;53.592;10.184;2023-04-28T22:39:10;100805.56;;;8.85;100.00
16016;BME280;8112;53.592;10.184;2023-04-28T22:44:12;100808.53;;;8.79;100.00
16016;BME280;8112;53.592;10.184;2023-04-28T22:49:13;100802.00;;;8.86;100.00
16016;BME280;8112;53.592;10.184;2023-04-28T22:54:17;100805.25;;;8.91;100.00
16016;BME280;8112;53.592;10.184;2023-04-28T22:59:18;100811.97;;;8.97;100.00
16016;BME280;8112;53.592;10.184;2023-04-28T23:04:20;100815.84;;;9.07;100.00
16016;BME280;8112;53.592;10.184;2023-04-28T23:09:24;100818.50;;;8.90;100.00
16016;BME280;8112;53.592;10.184;2023-04-28T23:14:25;100812.38;;;8.89;100.00
16016;BME280;8112;53.592;10.184;2023-04-28T23:19:27;100816.09;;;8.85;100.00
16016;BME280;8112;53.592;10.184;2023-04-28T23:24:30;100821.94;;;8.90;100.00
16016;BME280;8112;53.592;10.184;2023-04-28T23:29:32;100817.31;;;8.95;100.00
16016;BME280;8112;53.592;10.184;2023-04-28T23:34:35;100816.91;;;8.86;100.00
16016;BME280;8112;53.592;10.184;2023-04-28T23:39:38;100816.41;;;8.79;100.00
16016;BME280;8112;53.592;10.184;2023-04-28T23:44:40;100810.66;;;8.70;100.00
16016;BME280;8112;53.592;10.184;2023-04-28T23:49:42;100816.53;;;8.76;100.00
16016;BME280;8112;53.592;10.184;2023-04-28T23:54:45;100814.84;;;8.75;100.00
16016;BME280;8112;53.592;10.184;2023-04-28T23:59:46;100817.63;;;8.72;100.00
